createdAt,value
2023-02-15T00:01:29.638Z,89.67
2023-02-15T00:03:56.154Z,89.47
2023-02-15T00:06:22.971Z,90.06
2023-02-15T00:08:49.400Z,89.69
2023-02-15T00:11:17.014Z,89.53
2023-02-15T00:13:43.965Z,89.66
2023-02-15T00:16:11.891Z,89.39
2023-02-15T00:18:39.130Z,89.94
2023-02-15T00:21:10.622Z,89.61
2023-02-15T00:23:37.494Z,89.65
2023-02-15T00:26:08.193Z,89.55
2023-02-15T00:28:34.832Z,89.33
2023-02-15T00:31:08.801Z,89.13
2023-02-15T00:33:35.908Z,89.28
2023-02-15T00:36:03.533Z,88.96
2023-02-15T00:38:30.666Z,88.88
2023-02-15T00:40:58.252Z,88.55
2023-02-15T00:43:25.102Z,88.68
2023-02-15T00:45:51.856Z,89.10
2023-02-15T00:48:18.828Z,89.47
2023-02-15T00:50:49.766Z,89.17
2023-02-15T00:53:16.257Z,89.41
2023-02-15T00:55:42.994Z,89.48
2023-02-15T00:58:09.868Z,89.24
2023-02-15T01:00:36.585Z,89.12
2023-02-15T01:03:03.105Z,89.10
2023-02-15T01:05:30.729Z,89.21
2023-02-15T01:07:57.714Z,89.77
2023-02-15T01:10:24.368Z,89.76
2023-02-15T01:12:51.446Z,89.17
2023-02-15T01:15:17.969Z,89.75
2023-02-15T01:17:46.700Z,89.18
2023-02-15T01:20:13.257Z,89.06
2023-02-15T01:22:39.692Z,89.22
2023-02-15T01:25:06.294Z,89.57
2023-02-15T01:27:32.731Z,89.52
2023-02-15T01:29:59.238Z,89.29
2023-02-15T01:32:25.903Z,89.76
2023-02-15T01:34:52.341Z,89.32
2023-02-15T01:37:18.828Z,89.63
2023-02-15T01:39:45.393Z,90.01
2023-02-15T01:42:12.190Z,89.58
2023-02-15T01:44:57.366Z,89.98
2023-02-15T01:47:45.028Z,89.73
2023-02-15T01:50:29.612Z,90.09
2023-02-15T01:52:58.615Z,90.14
2023-02-15T01:55:26.572Z,89.37
2023-02-15T01:57:53.096Z,89.76
2023-02-15T02:00:20.184Z,89.68
2023-02-15T02:02:49.700Z,90.09
2023-02-15T02:05:16.376Z,90.16
2023-02-15T02:07:44.888Z,89.52
2023-02-15T02:10:12.883Z,89.67
2023-02-15T02:12:41.005Z,89.59
2023-02-15T02:15:07.836Z,89.50
2023-02-15T02:17:48.516Z,90.07
2023-02-15T02:20:29.960Z,89.78
2023-02-15T02:22:59.382Z,89.97
2023-02-15T02:25:55.225Z,89.96
2023-02-15T02:28:21.616Z,89.54
2023-02-15T02:30:48.132Z,89.88
2023-02-15T02:33:33.552Z,89.73
2023-02-15T02:36:12.112Z,89.79
2023-02-15T02:38:41.844Z,89.52
2023-02-15T02:41:21.420Z,89.37
2023-02-15T02:44:11.846Z,89.47
2023-02-15T02:46:45.027Z,89.59
2023-02-15T02:49:12.400Z,88.93
2023-02-15T02:51:38.833Z,89.45
2023-02-15T02:54:06.665Z,89.17
2023-02-15T02:56:37.602Z,89.20
2023-02-15T02:59:16.848Z,89.02
2023-02-15T03:01:51.689Z,89.35
2023-02-15T03:04:25.869Z,89.63
2023-02-15T03:06:57.277Z,89.49
2023-02-15T03:09:23.668Z,89.13
2023-02-15T03:11:51.002Z,89.30
2023-02-15T03:14:19.270Z,89.07
2023-02-15T03:16:48.284Z,89.07
2023-02-15T03:19:26.211Z,89.30
2023-02-15T03:22:04.542Z,89.60
2023-02-15T03:24:36.784Z,89.44
2023-02-15T03:27:11.271Z,89.40
2023-02-15T03:29:38.185Z,89.60
2023-02-15T03:32:06.668Z,89.58
2023-02-15T03:34:33.166Z,89.09
2023-02-15T03:37:07.901Z,89.05
2023-02-15T03:39:36.900Z,89.44
2023-02-15T03:42:10.894Z,89.17
2023-02-15T03:44:47.695Z,89.60
2023-02-15T03:47:18.845Z,89.62
2023-02-15T03:49:57.381Z,89.36
2023-02-15T03:52:26.449Z,89.37
2023-02-15T03:54:53.192Z,89.91
2023-02-15T03:57:42.722Z,89.74
2023-02-15T04:00:44.125Z,90.03
2023-02-15T04:03:21.069Z,90.06
2023-02-15T04:05:47.631Z,89.35
2023-02-15T04:08:14.084Z,89.43
2023-02-15T04:10:57.235Z,89.66
2023-02-15T04:13:25.106Z,89.66
2023-02-15T04:16:05.100Z,89.37
2023-02-15T04:18:54.696Z,89.58
2023-02-15T04:21:40.573Z,89.54
2023-02-15T04:24:26.093Z,88.73
2023-02-15T04:26:53.907Z,88.70
2023-02-15T04:29:21.211Z,88.29
2023-02-15T04:31:47.954Z,88.90
2023-02-15T04:34:14.663Z,88.52
2023-02-15T04:36:41.458Z,88.77
2023-02-15T04:39:08.563Z,88.90
2023-02-15T04:41:35.088Z,88.30
2023-02-15T04:44:01.874Z,88.58
2023-02-15T04:46:28.890Z,88.39
2023-02-15T04:48:55.490Z,88.92
2023-02-15T04:51:21.977Z,88.63
2023-02-15T04:53:48.396Z,88.91
2023-02-15T04:56:14.832Z,88.90
2023-02-15T04:58:42.178Z,88.32
2023-02-15T05:01:09.024Z,88.35
2023-02-15T05:03:35.712Z,88.32
2023-02-15T05:06:02.770Z,88.74
2023-02-15T05:08:29.389Z,87.84
2023-02-15T05:10:55.810Z,88.63
2023-02-15T05:13:22.255Z,88.90
2023-02-15T05:15:50.041Z,88.88
2023-02-15T05:18:17.211Z,89.20
2023-02-15T05:20:44.067Z,89.15
2023-02-15T05:23:10.705Z,89.27
2023-02-15T05:25:55.857Z,89.54
2023-02-15T05:28:23.343Z,89.84
2023-02-15T05:30:51.201Z,89.34
2023-02-15T05:33:18.193Z,89.65
2023-02-15T05:35:44.798Z,89.32
2023-02-15T05:38:11.317Z,88.69
2023-02-15T05:40:37.761Z,88.61
2023-02-15T05:43:04.251Z,88.41
2023-02-15T05:45:30.874Z,88.93
2023-02-15T05:47:59.056Z,88.46
2023-02-15T05:50:25.784Z,88.39
2023-02-15T05:52:52.644Z,88.97
2023-02-15T05:55:19.587Z,88.26
2023-02-15T05:57:46.063Z,88.57
2023-02-15T06:00:13.096Z,88.43
2023-02-15T06:02:39.956Z,88.90
2023-02-15T06:05:06.883Z,88.29
2023-02-15T06:07:33.507Z,88.32
2023-02-15T06:10:00.188Z,88.74
2023-02-15T06:12:26.623Z,88.32
2023-02-15T06:14:53.025Z,88.45
2023-02-15T06:17:19.468Z,88.87
2023-02-15T06:19:45.992Z,89.40
2023-02-15T06:22:14.927Z,88.98
2023-02-15T06:24:43.572Z,89.77
2023-02-15T06:27:10.924Z,89.22
2023-02-15T06:29:37.410Z,89.08
2023-02-15T06:32:04.069Z,89.97
2023-02-15T06:34:31.124Z,89.73
2023-02-15T06:36:57.750Z,89.91
2023-02-15T06:39:24.179Z,90.08
2023-02-15T06:41:50.626Z,89.58
2023-02-15T06:44:17.126Z,90.08
2023-02-15T06:46:43.606Z,89.82
2023-02-15T06:49:10.136Z,90.16
2023-02-15T06:51:36.658Z,90.92
2023-02-15T06:54:03.099Z,90.91
2023-02-15T06:56:30.584Z,90.26
2023-02-15T06:58:57.104Z,90.61
2023-02-15T07:01:23.640Z,90.97
2023-02-15T07:03:50.445Z,91.19
2023-02-15T07:06:16.859Z,91.92
2023-02-15T07:08:43.317Z,91.35
2023-02-15T07:11:28.401Z,91.15
2023-02-15T07:13:54.911Z,91.71
2023-02-15T07:16:21.861Z,91.38
2023-02-15T07:18:48.326Z,92.36
2023-02-15T07:21:14.756Z,92.97
2023-02-15T07:23:41.347Z,92.86
2023-02-15T07:26:08.151Z,92.54
2023-02-15T07:28:35.486Z,92.68
2023-02-15T07:31:02.920Z,92.98
2023-02-15T07:33:31.347Z,93.62
2023-02-15T07:35:59.874Z,93.43
2023-02-15T07:38:27.404Z,93.30
2023-02-15T07:40:58.930Z,93.32
2023-02-15T07:43:25.366Z,93.49
2023-02-15T07:45:52.009Z,93.47
2023-02-15T07:48:18.681Z,92.79
2023-02-15T07:50:45.232Z,93.02
2023-02-15T07:53:11.675Z,93.21
2023-02-15T07:55:38.168Z,92.92
2023-02-15T07:58:04.612Z,93.39
2023-02-15T08:00:31.170Z,93.26
2023-02-15T08:03:16.347Z,93.49
2023-02-15T08:05:43.999Z,93.68
2023-02-15T08:08:30.730Z,93.72
2023-02-15T08:11:20.343Z,93.50
2023-02-15T08:13:56.266Z,93.18
2023-02-15T08:16:27.434Z,93.43
2023-02-15T08:18:54.603Z,92.94
2023-02-15T08:21:24.415Z,92.79
2023-02-15T08:23:52.111Z,92.95
2023-02-15T08:26:18.724Z,92.43
2023-02-15T08:28:45.414Z,92.53
2023-02-15T08:31:13.606Z,91.68
2023-02-15T08:33:41.624Z,91.88
2023-02-15T08:36:09.802Z,91.71
2023-02-15T08:38:36.500Z,91.87
2023-02-15T08:41:15.000Z,91.41
2023-02-15T08:43:42.076Z,90.96
2023-02-15T08:46:09.239Z,91.16
2023-02-15T08:48:36.018Z,90.96
2023-02-15T08:51:07.509Z,90.60
2023-02-15T08:53:33.952Z,90.27
2023-02-15T08:56:00.829Z,90.48
2023-02-15T08:58:27.256Z,90.31
2023-02-15T09:00:53.742Z,89.88
2023-02-15T09:03:20.160Z,89.09
2023-02-15T09:05:46.632Z,89.99
2023-02-15T09:08:13.103Z,89.84
2023-02-15T09:10:39.576Z,89.74
2023-02-15T09:13:06.010Z,88.75
2023-02-15T09:15:32.501Z,88.86
2023-02-15T09:18:02.423Z,88.53
2023-02-15T09:20:29.798Z,88.38
2023-02-15T09:22:58.551Z,88.38
2023-02-15T09:25:26.194Z,87.88
2023-02-15T09:27:52.640Z,88.00
2023-02-15T09:30:19.236Z,87.52
2023-02-15T09:32:47.149Z,87.30
2023-02-15T09:35:13.596Z,87.09
2023-02-15T09:37:40.034Z,87.78
2023-02-15T09:40:06.821Z,87.59
2023-02-15T09:42:36.827Z,87.35
2023-02-15T09:45:15.521Z,86.85
2023-02-15T09:47:58.392Z,86.89
2023-02-15T09:50:24.810Z,86.67
2023-02-15T09:53:10.733Z,86.72
2023-02-15T09:55:49.360Z,87.04
2023-02-15T09:58:15.742Z,86.85
2023-02-15T10:01:07.932Z,86.78
2023-02-15T10:03:37.107Z,86.59
2023-02-15T10:06:03.574Z,86.68
2023-02-15T10:08:42.061Z,85.83
2023-02-15T10:11:36.341Z,86.31
2023-02-15T10:14:11.933Z,85.48
2023-02-15T10:16:43.772Z,85.15
2023-02-15T10:19:17.912Z,85.17
2023-02-15T10:22:04.594Z,85.33
2023-02-15T10:24:48.891Z,84.64
2023-02-15T10:27:22.468Z,84.84
2023-02-15T10:29:56.813Z,84.69
2023-02-15T10:32:24.927Z,84.64
2023-02-15T10:35:23.664Z,85.15
2023-02-15T10:37:54.607Z,83.90
2023-02-15T10:40:27.171Z,83.99
2023-02-15T10:42:53.576Z,83.35
2023-02-15T10:45:58.432Z,82.31
2023-02-15T10:48:40.724Z,81.59
2023-02-15T10:51:11.940Z,81.34
2023-02-15T10:53:58.217Z,81.17
2023-02-15T10:56:30.754Z,80.18
2023-02-15T10:59:16.062Z,80.12
2023-02-15T11:01:48.040Z,79.79
2023-02-15T11:04:16.554Z,78.50
2023-02-15T11:07:04.051Z,78.22
2023-02-15T11:09:37.445Z,77.76
2023-02-15T11:12:08.945Z,77.80
2023-02-15T11:14:51.392Z,77.68
2023-02-15T11:17:20.666Z,78.17
2023-02-15T11:19:53.235Z,77.14
2023-02-15T11:22:19.981Z,77.04
2023-02-15T11:24:47.638Z,75.79
2023-02-15T11:27:14.147Z,75.43
2023-02-15T11:29:43.786Z,75.55
2023-02-15T11:32:24.779Z,75.58
2023-02-15T11:35:00.741Z,76.58
2023-02-15T11:37:50.567Z,77.25
2023-02-15T11:40:36.799Z,76.27
2023-02-15T11:43:06.177Z,76.76
2023-02-15T11:45:35.390Z,77.31
2023-02-15T11:48:02.609Z,76.17
2023-02-15T11:50:30.650Z,73.91
2023-02-15T11:53:10.698Z,74.27
2023-02-15T11:55:37.153Z,75.78
2023-02-15T11:58:03.703Z,74.46
2023-02-15T12:00:51.141Z,75.79
2023-02-15T12:03:24.402Z,76.99
2023-02-15T12:05:54.654Z,75.28
2023-02-15T12:08:22.392Z,75.57
2023-02-15T12:11:08.380Z,75.31
2023-02-15T12:13:34.828Z,74.05
2023-02-15T12:16:11.117Z,75.25
2023-02-15T12:18:40.058Z,74.64
2023-02-15T12:21:09.047Z,74.09
2023-02-15T12:23:42.500Z,73.96
2023-02-15T12:26:08.991Z,74.48
2023-02-15T12:28:42.896Z,74.64
2023-02-15T12:31:29.406Z,73.51
2023-02-15T12:33:58.337Z,73.34
2023-02-15T12:36:45.353Z,74.06
2023-02-15T12:39:14.651Z,72.91
2023-02-15T12:41:56.457Z,74.68
2023-02-15T12:44:26.416Z,73.76
2023-02-15T12:47:16.087Z,74.48
2023-02-15T12:49:47.628Z,71.51
2023-02-15T12:52:23.141Z,72.48
2023-02-15T12:54:49.960Z,72.77
2023-02-15T12:57:22.651Z,72.29
2023-02-15T12:59:56.851Z,71.83
2023-02-15T13:02:46.651Z,71.24
2023-02-15T13:05:31.758Z,71.61
2023-02-15T13:07:59.707Z,72.14
2023-02-15T13:10:30.880Z,72.02
2023-02-15T13:12:58.801Z,70.35
2023-02-15T13:15:39.269Z,70.26
2023-02-15T13:18:10.212Z,68.63
2023-02-15T13:20:37.500Z,69.61
2023-02-15T13:23:10.614Z,69.23
2023-02-15T13:25:45.248Z,70.57
2023-02-15T13:28:15.129Z,71.25
2023-02-15T13:30:44.433Z,71.43
2023-02-15T13:33:16.868Z,71.11
2023-02-15T13:35:51.571Z,72.22
2023-02-15T13:38:18.044Z,72.72
2023-02-15T13:40:56.318Z,73.41
2023-02-15T13:43:22.790Z,73.56
2023-02-15T13:46:12.199Z,74.08
2023-02-15T13:48:51.435Z,74.07
2023-02-15T13:51:17.930Z,73.77
2023-02-15T13:53:44.359Z,74.50
2023-02-15T13:56:13.517Z,74.01
2023-02-15T13:58:42.749Z,74.92
2023-02-15T14:01:32.888Z,74.94
2023-02-15T14:03:59.391Z,74.76
2023-02-15T14:06:28.951Z,74.41
2023-02-15T14:09:04.357Z,74.54
2023-02-15T14:11:43.637Z,74.30
2023-02-15T14:14:13.155Z,75.21
2023-02-15T14:17:05.704Z,75.88
2023-02-15T14:19:46.815Z,76.36
2023-02-15T14:22:26.921Z,76.56
2023-02-15T14:25:01.052Z,75.77
2023-02-15T14:27:39.567Z,76.46
2023-02-15T14:30:14.089Z,77.07
2023-02-15T14:32:43.787Z,76.86
2023-02-15T14:35:17.905Z,76.75
2023-02-15T14:38:07.401Z,76.44
2023-02-15T14:40:58.734Z,76.43
2023-02-15T14:43:43.304Z,76.76
2023-02-15T14:46:09.822Z,77.08
2023-02-15T14:48:56.347Z,76.50
2023-02-15T14:51:40.868Z,76.49
2023-02-15T14:54:11.130Z,76.74
2023-02-15T14:56:39.870Z,76.91
2023-02-15T14:59:12.083Z,77.05
2023-02-15T15:01:39.536Z,78.10
2023-02-15T15:04:14.537Z,78.13
2023-02-15T15:06:45.006Z,78.38
2023-02-15T15:09:14.356Z,77.54
2023-02-15T15:11:44.545Z,77.93
2023-02-15T15:14:12.408Z,77.94
2023-02-15T15:16:39.789Z,77.61
2023-02-15T15:19:10.689Z,77.07
2023-02-15T15:22:03.856Z,76.78
2023-02-15T15:24:39.644Z,76.89
2023-02-15T15:27:24.886Z,76.89
2023-02-15T15:29:51.345Z,76.38
2023-02-15T15:32:23.357Z,77.25
2023-02-15T15:35:03.260Z,77.24
2023-02-15T15:37:29.661Z,77.03
2023-02-15T15:40:08.325Z,77.11
2023-02-15T15:42:50.337Z,77.02
2023-02-15T15:45:32.050Z,77.03
2023-02-15T15:48:07.538Z,77.54
2023-02-15T15:50:34.603Z,77.94
2023-02-15T15:53:03.032Z,77.79
2023-02-15T15:55:31.458Z,77.89
2023-02-15T15:58:00.319Z,77.69
2023-02-15T16:00:32.280Z,77.68
2023-02-15T16:02:58.736Z,77.85
2023-02-15T16:05:25.317Z,78.13
2023-02-15T16:07:51.767Z,78.78
2023-02-15T16:10:22.668Z,78.42
2023-02-15T16:12:50.116Z,78.11
2023-02-15T16:15:18.611Z,77.86
2023-02-15T16:17:49.189Z,78.41
2023-02-15T16:20:22.692Z,78.02
2023-02-15T16:22:50.591Z,78.48
2023-02-15T16:25:22.925Z,78.12
2023-02-15T16:27:49.782Z,77.81
2023-02-15T16:30:22.406Z,77.77
2023-02-15T16:32:49.346Z,78.40
2023-02-15T16:35:17.583Z,78.78
2023-02-15T16:37:44.243Z,78.33
2023-02-15T16:40:28.136Z,78.85
2023-02-15T16:43:08.563Z,79.59
2023-02-15T16:45:38.023Z,79.44
2023-02-15T16:48:07.487Z,79.54
2023-02-15T16:50:35.552Z,79.47
2023-02-15T16:53:03.065Z,78.98
2023-02-15T16:55:32.885Z,78.91
2023-02-15T16:58:02.470Z,79.30
2023-02-15T17:00:31.808Z,79.92
2023-02-15T17:03:06.112Z,79.19
2023-02-15T17:05:33.691Z,79.04
2023-02-15T17:08:07.811Z,79.47
2023-02-15T17:10:37.369Z,79.24
2023-02-15T17:13:17.393Z,79.32
2023-02-15T17:16:04.535Z,78.90
2023-02-15T17:18:32.553Z,79.58
2023-02-15T17:21:01.051Z,78.93
2023-02-15T17:23:35.552Z,78.82
2023-02-15T17:26:12.068Z,79.32
2023-02-15T17:28:38.815Z,79.26
2023-02-15T17:31:07.568Z,79.16
2023-02-15T17:33:34.286Z,79.66
2023-02-15T17:36:12.387Z,79.45
2023-02-15T17:38:39.782Z,79.53
2023-02-15T17:41:06.417Z,79.22
2023-02-15T17:43:33.046Z,79.48
2023-02-15T17:45:59.892Z,79.43
2023-02-15T17:48:36.557Z,79.51
2023-02-15T17:51:04.489Z,79.46
2023-02-15T17:53:31.346Z,79.12
2023-02-15T17:55:58.171Z,78.77
2023-02-15T17:58:24.703Z,79.06
2023-02-15T18:01:17.063Z,79.01
2023-02-15T18:04:09.351Z,79.12
2023-02-15T18:06:55.757Z,79.01
2023-02-15T18:09:41.813Z,79.23
2023-02-15T18:12:14.137Z,79.59
2023-02-15T18:14:40.572Z,79.72
2023-02-15T18:17:10.718Z,78.85
2023-02-15T18:19:37.549Z,79.28
2023-02-15T18:22:09.569Z,79.67
2023-02-15T18:24:36.020Z,79.64
2023-02-15T18:27:02.468Z,79.69
2023-02-15T18:29:28.905Z,79.36
2023-02-15T18:31:55.930Z,79.62
2023-02-15T18:34:25.117Z,79.78
2023-02-15T18:36:51.993Z,79.33
2023-02-15T18:39:30.794Z,79.27
2023-02-15T18:41:57.503Z,79.63
2023-02-15T18:44:23.940Z,79.37
2023-02-15T18:46:50.401Z,79.36
2023-02-15T18:49:16.825Z,79.85
2023-02-15T18:51:43.615Z,79.61
2023-02-15T18:54:16.823Z,79.60
2023-02-15T18:56:43.280Z,79.50
2023-02-15T18:59:17.151Z,80.13
2023-02-15T19:01:43.615Z,80.48
2023-02-15T19:04:10.295Z,80.36
2023-02-15T19:06:37.464Z,79.98
2023-02-15T19:09:03.949Z,79.96
2023-02-15T19:11:30.473Z,80.22
2023-02-15T19:13:56.916Z,80.30
2023-02-15T19:16:29.443Z,80.42
2023-02-15T19:18:56.018Z,80.62
2023-02-15T19:21:23.189Z,80.42
2023-02-15T19:23:54.048Z,80.34
2023-02-15T19:26:20.554Z,80.22
2023-02-15T19:28:47.126Z,80.48
2023-02-15T19:31:13.872Z,80.67
2023-02-15T19:33:40.973Z,80.38
2023-02-15T19:36:13.647Z,80.58
2023-02-15T19:38:41.715Z,80.60
2023-02-15T19:41:09.241Z,80.56
2023-02-15T19:43:35.898Z,80.15
2023-02-15T19:46:02.825Z,80.37
2023-02-15T19:48:29.554Z,80.48
2023-02-15T19:50:57.101Z,80.79
2023-02-15T19:53:24.796Z,80.72
2023-02-15T19:55:51.621Z,80.48
2023-02-15T19:58:21.110Z,80.36
2023-02-15T20:00:48.624Z,80.49
2023-02-15T20:03:15.659Z,80.86
2023-02-15T20:05:42.832Z,80.28
2023-02-15T20:08:17.289Z,80.21
2023-02-15T20:10:45.391Z,80.37
2023-02-15T20:13:15.906Z,80.79
2023-02-15T20:15:42.981Z,80.68
2023-02-15T20:18:09.549Z,81.00
2023-02-15T20:20:49.001Z,80.61
2023-02-15T20:23:20.325Z,80.56
2023-02-15T20:25:46.892Z,80.40
2023-02-15T20:28:21.349Z,80.33
2023-02-15T20:30:48.254Z,80.63
2023-02-15T20:33:15.291Z,80.59
2023-02-15T20:35:43.298Z,80.42
2023-02-15T20:38:29.355Z,80.73
2023-02-15T20:41:15.301Z,81.11
2023-02-15T20:43:41.762Z,80.83
2023-02-15T20:46:08.515Z,80.48
2023-02-15T20:48:35.040Z,80.54
2023-02-15T20:51:02.005Z,80.58
2023-02-15T20:53:29.026Z,80.16
2023-02-15T20:55:55.924Z,80.58
2023-02-15T20:58:26.671Z,80.21
2023-02-15T21:00:53.958Z,80.61
2023-02-15T21:03:21.872Z,80.48
2023-02-15T21:05:49.724Z,80.38
2023-02-15T21:08:17.599Z,80.67
2023-02-15T21:10:45.428Z,80.53
2023-02-15T21:13:21.247Z,80.48
2023-02-15T21:15:48.477Z,80.46
2023-02-15T21:18:22.962Z,80.61
2023-02-15T21:20:50.764Z,80.35
2023-02-15T21:23:19.985Z,80.14
2023-02-15T21:25:46.530Z,80.71
2023-02-15T21:28:17.510Z,81.06
2023-02-15T21:30:43.957Z,80.64
2023-02-15T21:33:10.536Z,80.81
2023-02-15T21:35:37.770Z,80.30
2023-02-15T21:38:04.439Z,80.20
2023-02-15T21:40:31.780Z,80.39
2023-02-15T21:43:17.454Z,80.66
2023-02-15T21:46:03.098Z,80.49
2023-02-15T21:48:29.588Z,80.47
2023-02-15T21:51:14.654Z,81.64
2023-02-15T21:53:43.133Z,80.42
2023-02-15T21:56:11.740Z,80.51
2023-02-15T21:58:38.159Z,80.58
2023-02-15T22:01:05.034Z,80.91
2023-02-15T22:03:33.416Z,81.01
2023-02-15T22:05:59.980Z,80.84
2023-02-15T22:08:26.732Z,80.86
2023-02-15T22:10:53.950Z,81.02
2023-02-15T22:13:40.636Z,80.84
2023-02-15T22:16:07.123Z,80.94
2023-02-15T22:18:34.358Z,81.08
2023-02-15T22:21:01.724Z,81.25
2023-02-15T22:23:28.329Z,81.08
2023-02-15T22:26:17.904Z,81.98
2023-02-15T22:28:44.407Z,81.40
2023-02-15T22:31:12.973Z,81.24
2023-02-15T22:33:39.507Z,81.21
2023-02-15T22:36:06.154Z,81.07
2023-02-15T22:38:32.726Z,81.29
2023-02-15T22:41:03.979Z,80.71
2023-02-15T22:43:35.306Z,80.25
2023-02-15T22:46:03.222Z,80.52
2023-02-15T22:48:29.717Z,80.41
2023-02-15T22:50:56.186Z,80.70
2023-02-15T22:53:22.613Z,80.56
2023-02-15T22:55:49.169Z,80.71
2023-02-15T22:58:26.788Z,80.65
2023-02-15T23:00:53.248Z,79.88
2023-02-15T23:03:24.224Z,80.19
2023-02-15T23:05:51.524Z,80.46
2023-02-15T23:08:18.076Z,80.14
2023-02-15T23:10:46.306Z,79.96
2023-02-15T23:13:25.705Z,80.24
2023-02-15T23:15:54.194Z,80.22
2023-02-15T23:18:26.373Z,80.10
2023-02-15T23:21:04.152Z,79.57
2023-02-15T23:23:35.367Z,79.94
2023-02-15T23:26:04.383Z,80.49
2023-02-15T23:28:35.719Z,79.60
2023-02-15T23:31:02.987Z,79.66
2023-02-15T23:33:32.536Z,79.42
2023-02-15T23:35:59.347Z,79.75
2023-02-15T23:38:30.148Z,79.50
2023-02-15T23:41:17.175Z,79.52
2023-02-15T23:43:45.230Z,79.76
2023-02-15T23:46:20.244Z,79.96
2023-02-15T23:48:46.729Z,80.02
2023-02-15T23:51:13.263Z,80.01
2023-02-15T23:53:39.744Z,79.98
2023-02-15T23:56:06.491Z,79.97
2023-02-15T23:58:37.604Z,79.68
